createdAt,value
2023-03-15T00:02:08.671Z,7.37
2023-03-15T00:07:11.456Z,8.01
2023-03-15T00:12:14.153Z,8.43
2023-03-15T00:17:17.257Z,6.43
2023-03-15T00:22:20.009Z,8.69
2023-03-15T00:27:22.833Z,8.28
2023-03-15T00:32:25.653Z,7.61
2023-03-15T00:37:28.454Z,9.43
2023-03-15T00:42:31.190Z,7.28
2023-03-15T00:47:33.952Z,6.46
2023-03-15T00:52:37.805Z,8.88
2023-03-15T00:57:42.295Z,9.25
2023-03-15T01:02:45.577Z,6.75
2023-03-15T01:07:49.279Z,8.56
2023-03-15T01:12:51.972Z,7.83
2023-03-15T01:17:56.866Z,8.13
2023-03-15T01:22:59.593Z,9.03
2023-03-15T01:28:02.344Z,7.06
2023-03-15T01:33:05.264Z,8.90
2023-03-15T01:38:08.042Z,8.40
2023-03-15T01:43:21.993Z,7.24
2023-03-15T01:49:00.645Z,8.52
2023-03-15T01:54:29.978Z,9.07
2023-03-15T01:59:43.221Z,6.50
2023-03-15T02:04:55.443Z,8.06
2023-03-15T02:10:11.140Z,8.99
2023-03-15T02:15:15.791Z,8.03
2023-03-15T02:20:27.317Z,8.14
2023-03-15T02:25:38.884Z,8.92
2023-03-15T02:30:42.796Z,7.00
2023-03-15T02:35:45.674Z,8.48
2023-03-15T02:40:49.219Z,7.40
2023-03-15T02:45:52.177Z,7.77
2023-03-15T02:50:54.956Z,8.59
2023-03-15T02:55:58.564Z,7.67
2023-03-15T03:01:01.298Z,7.73
2023-03-15T03:06:04.148Z,9.23
2023-03-15T03:11:07.903Z,7.21
2023-03-15T03:16:11.215Z,8.76
2023-03-15T03:21:14.932Z,7.08
2023-03-15T03:26:19.359Z,7.68
2023-03-15T03:31:25.210Z,8.84
2023-03-15T03:36:27.995Z,7.55
2023-03-15T03:41:30.689Z,7.40
2023-03-15T03:46:33.648Z,9.33
2023-03-15T03:51:37.882Z,8.08
2023-03-15T03:56:40.759Z,8.09
2023-03-15T04:01:43.789Z,9.08
2023-03-15T04:06:46.490Z,7.43
2023-03-15T04:11:49.190Z,8.28
2023-03-15T04:16:51.871Z,7.84
2023-03-15T04:21:54.588Z,7.72
2023-03-15T04:26:58.010Z,8.62
2023-03-15T04:32:02.049Z,7.37
2023-03-15T04:37:05.927Z,8.02
2023-03-15T04:42:09.037Z,7.68
2023-03-15T04:47:11.875Z,7.23
2023-03-15T04:52:14.624Z,7.57
2023-03-15T04:57:17.375Z,5.91
2023-03-15T05:02:20.137Z,8.00
2023-03-15T05:07:22.945Z,6.33
2023-03-15T05:12:25.681Z,6.94
2023-03-15T05:17:28.401Z,7.82
2023-03-15T05:22:31.182Z,6.92
2023-03-15T05:27:34.704Z,7.80
2023-03-15T05:32:39.873Z,6.47
2023-03-15T05:37:42.795Z,7.93
2023-03-15T05:42:45.660Z,6.71
2023-03-15T05:47:48.456Z,7.58
2023-03-15T05:52:52.180Z,6.60
2023-03-15T05:57:55.083Z,7.65
2023-03-15T06:02:57.827Z,7.19
2023-03-15T06:08:00.672Z,7.50
2023-03-15T06:13:03.588Z,7.58
2023-03-15T06:18:06.490Z,7.08
2023-03-15T06:23:09.395Z,7.59
2023-03-15T06:28:12.092Z,7.59
2023-03-15T06:33:14.866Z,7.78
2023-03-15T06:38:17.635Z,6.36
2023-03-15T06:43:20.552Z,7.77
2023-03-15T06:48:23.293Z,6.55
2023-03-15T06:53:27.460Z,7.97
2023-03-15T06:58:31.025Z,7.14
2023-03-15T07:03:35.876Z,7.81
2023-03-15T07:08:39.326Z,6.64
2023-03-15T07:13:42.136Z,7.72
2023-03-15T07:18:44.874Z,6.95
2023-03-15T07:23:47.684Z,7.65
2023-03-15T07:28:50.800Z,7.25
2023-03-15T07:33:53.561Z,7.42
2023-03-15T07:38:56.599Z,7.17
2023-03-15T07:44:01.547Z,7.32
2023-03-15T07:49:18.165Z,6.96
2023-03-15T07:54:23.068Z,7.54
2023-03-15T07:59:25.870Z,6.91
2023-03-15T08:04:28.750Z,7.09
2023-03-15T08:09:34.661Z,7.80
2023-03-15T08:14:37.769Z,7.41
2023-03-15T08:19:41.063Z,7.74
2023-03-15T08:24:45.735Z,7.50
2023-03-15T08:29:48.709Z,6.70
2023-03-15T08:34:53.292Z,7.77
2023-03-15T08:39:58.031Z,6.25
2023-03-15T08:45:02.184Z,8.16
2023-03-15T08:50:08.275Z,6.76
2023-03-15T08:55:14.420Z,8.62
2023-03-15T09:00:20.902Z,7.35
2023-03-15T09:05:26.836Z,7.83
2023-03-15T09:10:29.576Z,7.88
2023-03-15T09:15:32.308Z,6.43
2023-03-15T09:20:35.139Z,7.61
2023-03-15T09:25:37.983Z,6.34
2023-03-15T09:30:42.409Z,7.88
2023-03-15T09:35:45.216Z,7.25
2023-03-15T09:40:49.030Z,6.23
2023-03-15T09:46:33.785Z,7.94
2023-03-15T09:51:43.306Z,6.86
2023-03-15T09:56:56.857Z,6.26
2023-03-15T10:02:08.926Z,7.93
2023-03-15T10:07:16.627Z,6.39
2023-03-15T10:12:41.340Z,6.85
2023-03-15T10:17:59.232Z,7.56
2023-03-15T10:23:20.546Z,6.28
2023-03-15T10:28:31.219Z,8.21
2023-03-15T10:33:37.549Z,7.82
2023-03-15T10:38:41.907Z,6.65
2023-03-15T10:43:58.126Z,6.16
2023-03-15T10:49:08.564Z,6.38
2023-03-15T10:54:25.035Z,9.62
2023-03-15T10:59:30.478Z,8.37
2023-03-15T11:04:34.458Z,7.15
2023-03-15T11:09:43.503Z,6.39
2023-03-15T11:14:48.807Z,7.63
2023-03-15T11:19:57.536Z,8.12
2023-03-15T11:25:00.330Z,6.97
2023-03-15T11:30:04.760Z,6.39
2023-03-15T11:35:17.358Z,8.39
2023-03-15T11:40:33.797Z,8.64
2023-03-15T11:45:46.288Z,7.36
2023-03-15T11:50:53.791Z,6.75
2023-03-15T11:55:58.633Z,6.46
2023-03-15T12:01:04.530Z,6.26
2023-03-15T12:06:10.461Z,6.06
2023-03-15T12:11:33.142Z,5.79
2023-03-15T12:16:45.037Z,6.17
2023-03-15T12:21:53.453Z,8.42
2023-03-15T12:27:05.776Z,7.07
2023-03-15T12:32:17.607Z,6.82
2023-03-15T12:37:22.442Z,9.61
2023-03-15T12:42:34.037Z,7.69
2023-03-15T12:47:51.811Z,6.27
2023-03-15T12:53:00.672Z,5.78
2023-03-15T12:58:04.838Z,7.99
2023-03-15T13:03:16.759Z,6.53
2023-03-15T13:08:37.093Z,6.71
2023-03-15T13:13:54.902Z,8.01
2023-03-15T13:19:18.936Z,6.18
2023-03-15T13:24:30.838Z,7.28
2023-03-15T13:29:33.727Z,10.78
2023-03-15T13:34:36.543Z,9.25
2023-03-15T13:39:39.348Z,7.51
2023-03-15T13:44:42.054Z,7.04
2023-03-15T13:49:44.755Z,8.92
2023-03-15T13:54:47.684Z,6.97
2023-03-15T13:59:55.601Z,8.68
2023-03-15T14:05:03.854Z,8.58
2023-03-15T14:10:18.486Z,6.60
2023-03-15T14:15:36.340Z,8.30
2023-03-15T14:20:43.785Z,6.75
2023-03-15T14:26:20.490Z,8.74
2023-03-15T14:31:34.696Z,7.70
2023-03-15T14:36:44.010Z,6.56
2023-03-15T14:41:46.671Z,7.85
2023-03-15T14:46:49.720Z,10.52
2023-03-15T14:52:05.248Z,9.08
2023-03-15T14:57:09.227Z,8.32
2023-03-15T15:02:20.879Z,8.42
2023-03-15T15:07:24.122Z,11.58
2023-03-15T15:12:26.785Z,10.37
2023-03-15T15:17:29.593Z,8.60
2023-03-15T15:22:32.568Z,7.58
2023-03-15T15:27:35.308Z,10.48
2023-03-15T15:32:38.100Z,9.92
2023-03-15T15:37:43.610Z,7.09
2023-03-15T15:42:47.502Z,7.44
2023-03-15T15:47:51.136Z,9.31
2023-03-15T15:52:54.183Z,7.29
2023-03-15T15:57:57.395Z,6.11
2023-03-15T16:03:00.140Z,7.33
2023-03-15T16:08:05.048Z,9.65
2023-03-15T16:13:11.297Z,7.70
2023-03-15T16:18:14.308Z,6.69
2023-03-15T16:23:24.508Z,8.20
2023-03-15T16:28:28.208Z,10.60
2023-03-15T16:33:34.665Z,8.43
2023-03-15T16:38:37.386Z,6.82
2023-03-15T16:43:40.088Z,5.69
2023-03-15T16:48:43.454Z,6.56
2023-03-15T16:53:46.194Z,9.32
2023-03-15T16:58:52.072Z,6.99
2023-03-15T17:03:55.778Z,5.25
2023-03-15T17:09:03.343Z,6.18
2023-03-15T17:14:10.857Z,9.03
2023-03-15T17:19:15.183Z,6.64
2023-03-15T17:24:18.167Z,4.81
2023-03-15T17:29:21.303Z,5.90
2023-03-15T17:34:23.964Z,8.60
2023-03-15T17:39:27.505Z,6.20
2023-03-15T17:44:30.194Z,4.39
2023-03-15T17:49:32.853Z,5.40
2023-03-15T17:54:35.864Z,8.36
2023-03-15T17:59:38.930Z,5.98
2023-03-15T18:04:42.039Z,4.00
2023-03-15T18:09:44.676Z,6.48
2023-03-15T18:14:47.434Z,7.60
2023-03-15T18:19:50.240Z,4.95
2023-03-15T18:24:53.039Z,3.74
2023-03-15T18:29:55.857Z,7.22
2023-03-15T18:34:58.518Z,6.89
2023-03-15T18:40:01.335Z,4.42
2023-03-15T18:45:04.832Z,5.06
2023-03-15T18:50:10.993Z,7.72
2023-03-15T18:55:16.418Z,5.21
2023-03-15T19:00:26.782Z,3.65
2023-03-15T19:05:34.204Z,6.91
2023-03-15T19:10:36.928Z,6.79
2023-03-15T19:15:39.887Z,4.41
2023-03-15T19:20:42.685Z,5.11
2023-03-15T19:25:46.730Z,7.81
2023-03-15T19:30:49.738Z,5.34
2023-03-15T19:35:53.073Z,3.50
2023-03-15T19:40:58.562Z,5.04
2023-03-15T19:46:06.617Z,7.77
2023-03-15T19:51:09.396Z,5.19
2023-03-15T19:56:12.112Z,3.68
2023-03-15T20:01:16.217Z,6.94
2023-03-15T20:06:19.392Z,6.20
2023-03-15T20:11:25.343Z,3.85
2023-03-15T20:16:28.396Z,4.43
2023-03-15T20:21:31.150Z,7.06
2023-03-15T20:26:33.834Z,4.59
2023-03-15T20:31:36.680Z,2.81
2023-03-15T20:36:39.658Z,3.51
2023-03-15T20:41:42.352Z,6.86
2023-03-15T20:46:45.444Z,4.73
2023-03-15T20:51:48.371Z,2.86
2023-03-15T20:56:51.783Z,3.89
2023-03-15T21:01:54.501Z,6.54
2023-03-15T21:07:04.005Z,3.98
2023-03-15T21:12:08.065Z,2.28
2023-03-15T21:17:11.279Z,4.91
2023-03-15T21:22:13.884Z,6.09
2023-03-15T21:27:16.871Z,3.37
2023-03-15T21:32:20.062Z,1.81
2023-03-15T21:37:22.775Z,2.72
2023-03-15T21:42:25.681Z,5.93
2023-03-15T21:47:28.391Z,3.51
2023-03-15T21:52:31.306Z,1.54
2023-03-15T21:57:34.194Z,2.80
2023-03-15T22:02:37.073Z,5.62
2023-03-15T22:07:41.095Z,3.07
2023-03-15T22:12:43.863Z,1.29
2023-03-15T22:17:46.640Z,3.64
2023-03-15T22:22:49.423Z,5.29
2023-03-15T22:27:52.326Z,2.59
2023-03-15T22:32:55.127Z,1.02
2023-03-15T22:37:57.972Z,3.55
2023-03-15T22:43:00.851Z,5.28
2023-03-15T22:48:03.829Z,2.60
2023-03-15T22:53:06.646Z,1.07
2023-03-15T22:58:09.346Z,4.18
2023-03-15T23:03:12.377Z,4.66
2023-03-15T23:08:15.050Z,2.07
2023-03-15T23:13:17.753Z,0.58
2023-03-15T23:18:22.287Z,2.71
2023-03-15T23:23:27.248Z,5.05
2023-03-15T23:28:29.939Z,2.39
2023-03-15T23:33:35.385Z,0.68
2023-03-15T23:38:38.213Z,2.52
2023-03-15T23:43:41.656Z,5.12
2023-03-15T23:48:44.535Z,2.51
2023-03-15T23:53:47.215Z,0.76
2023-03-15T23:58:50.107Z,1.97
